Aktualne dane pomiarowe

Uwaga, wersja testowa! Automatyczne pobieranie danych za pomocą narzędzi lub skryptów to umożliwiających jest zabronione.

Dane meteo z obszaru Polski uzyskane na podstawie depesz SYNOP pobieranych co godzinę z NWS. Najedź myszką na symbol przedstawiony w tabeli, aby uzyskać informacje co do jego znaczenia. Prosimy pamiętać, że to testowa wersja strony, która jeszcze nie jest ukończona. Stworzono również jest krótki FAQ dotyczący korzystania z tej podstrony Anomalie temperatury w chwili obecnej odniesione są do okresu referencyjnego 1951-2016. Okres ten będzie później zmieniony na 1981-2010. Kliknij ikonę aby pobrać plik CSV. Kliknij ikonę aby wygenerować mapę synoptyczną dla danego terminu.

Wybierz Datę:    

        

Zakopane (12625)

Dane terminowe dla wybranej stacji. Kliknij datę, aby otrzymać dane z tego terminu dla wszystkich stacji.

TemperaturaZachmurzenieWiatrCiśnienieOpadyPogoda
 Data t td wb tx tn tg rh  Nt Nl Cl Cm Ch ws wd g1 g2 wx mslp ppp ch 24h 12h t ww ww w1 w2  
2019-06-30 23:00:00 15.5 8.2 11.2--- 6240.0wx-1wx--1- 921.5 0.0---------
2019-06-30 22:00:00 16.3 8.3 11.6--- 5950.0wx-0---0- 921.5 0.1---------
2019-06-30 21:00:00 17.8 9.9 13.0--- 6025.0wx-1wx--1- 921.6 0.3---------
2019-06-30 20:00:00 19.5 10.8 14.2--- 5730.0wx-1wx---- 921.5 0.0---------
2019-06-30 19:00:00 21.9 13.0 16.3--- 5730.0wx-1wx--1- 921.4 -0.1---------
2019-06-30 18:00:00 26.5 12.2 17.8 31.4 19.9- 4145.0wx-1wx-71- 921.3 -0.6- 0.012------
2019-06-30 17:00:00 29.8 8.2 17.3--- 2640.0wx-2wx--2- 921.5 -0.8---------
2019-06-30 16:00:00 30.7 9.0 18.0--- 2635.0wx-2wx--2- 921.5 -1.2---------
2019-06-30 15:00:00 30.8 10.7 18.7--- 2940.0wx-1wx-71- 921.9 -1.2---------
2019-06-30 14:00:00 30.6 12.0 19.3--- 3245.0wx-2wx--2- 922.3 -1.1---------
2019-06-30 13:00:00 29.9 8.3 17.4--- 2645.0wx-2wx-72- 922.7 -0.9---------
2019-06-30 12:00:00 28.7 9.4 17.4--- 3035.0wx-2wx--2- 923.1 -0.5- 0.06------
2019-06-30 11:00:00 27.4 8.8 16.6--- 3130.0wx-2wx--2- 923.4 -0.2---------
2019-06-30 10:00:00 26.8 9.6 16.7--- 3435.0wx-3wx--3- 923.6 0.0---------
2019-06-30 09:00:00 25.7 14.2 18.5--- 4930.0wx-2wx--2- 923.6 0.0---------
2019-06-30 08:00:00 24.3 11.6 16.6--- 4540.0wx-2wx--2- 923.6 -0.1---------
2019-06-30 07:00:00 22.4 6.6 13.6--- 3635.0wx-1wx--1- 923.6 0.1---------
2019-06-30 06:00:00 19.9 9.5 13.8 19.9 12.0 11 5135.0wx-1wx--1- 923.6 0.1- 0.012----- 12.1
2019-06-30 05:00:00 16.8 10.2 12.7--- 6540.0wx-1wx--1- 923.7 0.0---------
2019-06-30 04:00:00 13.2 7.8 9.9--- 7045.0wx-1wx---- 923.5 -0.5---------
2019-06-30 03:00:00 12.2 8.1 9.6--- 7645.0wx-2wx--2- 923.5 -0.6---------
2019-06-30 02:00:00 12.5 8.6 10.0--- 7740.0wx-2wx--2- 923.7 -0.6---------
2019-06-30 01:00:00 12.5 9.3 10.4--- 8140.0wx-1wx--1- 924.0 -0.5---------
2019-06-30 00:00:00 13.0 9.4 10.7--- 7935.0wx-1wx---- 924.1 -0.3---------
2019-06-29 23:00:00 13.6 9.4 10.9--- 7645.0wx-wx1wx---- 924.3 -0.1---------
2019-06-29 22:00:00 14.0 9.6 11.2--- 7535.0wx-wx1wx---- 924.5 0.4---------
2019-06-29 21:00:00 14.5 9.9 11.6--- 7430.0wx-wx1wx---- 924.4 0.4---------
2019-06-29 20:00:00 15.5 9.4 11.8--- 6740.0wx-wx1wx--1- 924.4 0.9---------
2019-06-29 19:00:00 17.6 9.5 12.7--- 5940.0wx-wx1wx--1- 924.1 0.5---------
2019-06-29 18:00:00 19.8 8.2 13.1 22.5 14.5- 4750.0wxwxwxwx2wx-72- 924.0 0.3- 0.012------
2019-06-29 17:00:00 21.3 8.2 13.8--- 4340.0wx-wx3wx---- 923.5 -0.3---------
2019-06-29 16:00:00 21.8 7.6 13.8--- 4040.0wx-wx2wx---- 923.6 -0.5---------
2019-06-29 15:00:00 21.7 8.2 14.0--- 4240.0wx-wx3wx-73- 923.7 -0.8---------
2019-06-29 14:00:00 21.4 7.2 13.4--- 4040.0wxwxwxwx3wx---- 923.8 -1.0---------
2019-06-29 13:00:00 21.1 8.0 13.6--- 4340.0wxwxwxwx2wx---- 924.1 -0.8---------
2019-06-29 12:00:00 20.6 5.8 12.5--- 3845.0wxwxwxwx1wx--1- 924.5 -0.5- 0.06------
2019-06-29 11:00:00 19.4 6.8 12.4--- 4445.0wxwxwxwx3wx--3- 924.8 -0.1---------
2019-06-29 10:00:00 19.1 7.8 12.7--- 4840.0wxwxwxwx2wx--2- 924.9 -0.4---------
2019-06-29 09:00:00 18.1 6.0 11.4--- 4540.0wxwxwxwxwx2wx--2- 925.0 -0.2---------
2019-06-29 08:00:00 17.0 7.3 11.5--- 5340.0wxwxwxwxwx2wx--2- 924.9 -0.1---------
2019-06-29 07:00:00 16.0 5.3 10.1--- 4940.0wxwxwxwxwx1wx--1- 925.3 0.5---------
2019-06-29 06:00:00 14.5 8.0 10.6 14.9 12.7 13 6535.0wxwxwxwxwx1wx--1- 925.2 0.6--12wx-w1- 7.1
2019-06-29 05:00:00 13.4 9.6 11.0--- 7840.0wxwxwx1wx--1- 925.0 0.4---------
2019-06-29 04:00:00 13.4 10.0 11.2--- 8035.0wxwxwxwxwx1wx--1- 924.8 0.4---------
2019-06-29 03:00:00 12.8 10.2 11.1--- 8430.0wxwxwxwx1wx--1- 924.6 0.0---wx-w1--
2019-06-29 02:00:00 13.2 10.2 11.2--- 8240.0wxwxwxwx0---0- 924.6 0.2---wx---
2019-06-29 01:00:00 13.3 9.5 10.9--- 7825.0wxwxwx1wx--1- 924.4 -0.2---wx---
2019-06-29 00:00:00 13.0 9.1 10.5--- 7735.0wxwxwx1wx--1- 924.6 0.2- 0.06------
1.2 ms

 

Print Friendly, PDF & Email